createdAt,value
2019-01-18T00:03:56.053Z,90.56
2019-01-18T00:08:08.454Z,82.11
2019-01-18T00:12:13.114Z,82.71
2019-01-18T00:16:20.206Z,84.15
2019-01-18T00:20:27.269Z,82.09
2019-01-18T00:24:34.674Z,82.43
2019-01-18T00:28:43.435Z,81.51
2019-01-18T00:32:54.560Z,80.11
2019-01-18T00:37:04.685Z,79.66
2019-01-18T00:41:12.728Z,79.14
2019-01-18T00:45:20.748Z,79.43
2019-01-18T00:49:29.347Z,79.76
2019-01-18T00:53:40.980Z,80.14
2019-01-18T00:57:49.948Z,78.76
2019-01-18T01:01:58.779Z,79.14
2019-01-18T01:06:07.297Z,79.88
2019-01-18T01:10:29.918Z,80.86
2019-01-18T01:14:35.777Z,82.08
2019-01-18T01:18:43.355Z,81.80
2019-01-18T01:22:53.152Z,82.58
2019-01-18T01:27:05.981Z,81.14
2019-01-18T01:31:18.445Z,81.00
2019-01-18T01:35:40.886Z,81.27
2019-01-18T01:39:56.208Z,80.91
2019-01-18T01:44:09.383Z,80.68
2019-01-18T01:48:20.728Z,80.09
2019-01-18T01:52:27.813Z,81.20
2019-01-18T01:56:35.250Z,80.93
2019-01-18T02:00:42.960Z,81.48
2019-01-18T02:04:51.059Z,80.99
2019-01-18T02:08:58.372Z,81.25
2019-01-18T02:13:05.231Z,82.24
2019-01-18T02:17:12.328Z,82.33
2019-01-18T02:21:19.361Z,82.62
2019-01-18T02:25:26.589Z,82.87
2019-01-18T02:29:33.629Z,81.77
2019-01-18T02:33:40.873Z,81.23
2019-01-18T02:37:47.809Z,79.61
2019-01-18T02:41:54.892Z,79.73
2019-01-18T02:46:01.923Z,79.69
2019-01-18T02:50:11.361Z,80.18
2019-01-18T02:54:18.339Z,80.86
2019-01-18T02:58:25.318Z,80.50
2019-01-18T03:02:34.698Z,80.05
2019-01-18T03:06:42.450Z,81.15
2019-01-18T03:10:49.418Z,79.75
2019-01-18T03:14:57.888Z,80.82
2019-01-18T03:19:04.949Z,80.97
2019-01-18T03:23:13.785Z,80.78
2019-01-18T03:27:20.819Z,80.38
2019-01-18T03:31:27.775Z,80.78
2019-01-18T03:35:34.844Z,81.17
2019-01-18T03:39:41.791Z,81.93
2019-01-18T03:43:48.741Z,81.47
2019-01-18T03:47:55.830Z,78.41
2019-01-18T03:52:02.717Z,79.23
2019-01-18T03:56:09.620Z,80.01
2019-01-18T04:00:26.173Z,78.27
2019-01-18T04:04:31.765Z,79.01
2019-01-18T04:08:38.856Z,77.01
2019-01-18T04:12:46.011Z,77.52
2019-01-18T04:16:53.333Z,77.71
2019-01-18T04:21:00.280Z,77.16
2019-01-18T04:25:10.303Z,77.17
2019-01-18T04:29:17.288Z,77.34
2019-01-18T04:33:24.220Z,78.33
2019-01-18T04:37:31.278Z,77.84
2019-01-18T04:41:38.405Z,77.11
2019-01-18T04:45:45.410Z,77.95
2019-01-18T04:49:52.385Z,77.27
2019-01-18T04:53:59.656Z,77.12
2019-01-18T04:58:09.461Z,78.20
2019-01-18T05:02:16.469Z,79.73
2019-01-18T05:06:23.723Z,80.46
2019-01-18T05:10:31.286Z,81.24
2019-01-18T05:14:38.475Z,81.19
2019-01-18T05:18:45.949Z,82.28
2019-01-18T05:22:52.808Z,83.92
2019-01-18T05:27:01.205Z,84.22
2019-01-18T05:31:08.322Z,84.67
2019-01-18T05:35:15.689Z,82.70
2019-01-18T05:39:22.686Z,84.20
2019-01-18T05:43:30.820Z,84.07
2019-01-18T05:47:38.049Z,83.67
2019-01-18T05:51:46.509Z,84.38
2019-01-18T05:55:53.687Z,83.35
2019-01-18T06:00:01.297Z,82.79
2019-01-18T06:04:10.724Z,82.93
2019-01-18T06:08:19.436Z,83.57
2019-01-18T06:12:28.131Z,83.29
2019-01-18T06:16:35.683Z,83.26
2019-01-18T06:20:44.364Z,81.20
2019-01-18T06:24:53.599Z,80.58
2019-01-18T06:29:01.103Z,80.40
2019-01-18T06:33:08.558Z,80.06
2019-01-18T06:37:15.650Z,83.98
2019-01-18T06:41:43.221Z,81.18
2019-01-18T06:45:51.862Z,80.12
2019-01-18T06:49:59.085Z,80.61
2019-01-18T06:54:06.346Z,80.74
2019-01-18T06:58:13.228Z,79.70
2019-01-18T07:02:20.428Z,81.58
2019-01-18T07:06:30.266Z,81.64
2019-01-18T07:10:37.818Z,85.52
2019-01-18T07:14:45.292Z,81.48
2019-01-18T07:18:52.613Z,80.97
2019-01-18T07:22:59.733Z,81.86
2019-01-18T07:27:06.927Z,81.41
2019-01-18T07:31:15.252Z,82.24
2019-01-18T07:35:23.319Z,83.09
2019-01-18T07:39:30.535Z,83.20
2019-01-18T07:43:37.725Z,83.38
2019-01-18T07:47:44.577Z,82.82
2019-01-18T07:51:51.610Z,83.59
2019-01-18T07:55:58.740Z,82.83
2019-01-18T08:00:16.259Z,83.17
2019-01-18T08:04:23.436Z,82.84
2019-01-18T08:08:32.884Z,82.98
2019-01-18T08:12:39.842Z,82.50
2019-01-18T08:16:48.311Z,85.52
2019-01-18T08:20:55.370Z,83.43
2019-01-18T08:25:02.473Z,81.51
2019-01-18T08:29:12.124Z,80.47
2019-01-18T08:33:19.209Z,81.63
2019-01-18T08:37:26.154Z,80.56
2019-01-18T08:41:33.016Z,80.69
2019-01-18T08:46:02.434Z,80.71
2019-01-18T08:50:13.919Z,80.43
2019-01-18T08:54:23.079Z,80.65
2019-01-18T08:58:32.188Z,78.21
2019-01-18T09:02:44.593Z,75.72
2019-01-18T09:06:51.553Z,73.52
2019-01-18T09:10:58.472Z,72.26
2019-01-18T09:15:07.635Z,72.00
2019-01-18T09:19:14.647Z,69.54
2019-01-18T09:23:21.635Z,69.25
2019-01-18T09:27:29.145Z,69.36
2019-01-18T09:31:42.289Z,68.50
2019-01-18T09:35:46.450Z,69.06
2019-01-18T09:39:53.540Z,68.07
2019-01-18T09:44:00.538Z,68.36
2019-01-18T09:48:11.601Z,68.31
2019-01-18T09:52:18.734Z,66.49
2019-01-18T09:56:28.676Z,65.60
2019-01-18T10:00:38.831Z,66.97
2019-01-18T10:04:45.761Z,65.77
2019-01-18T10:08:52.873Z,66.38
2019-01-18T10:13:00.045Z,66.84
2019-01-18T10:17:07.022Z,67.42
2019-01-18T10:21:14.265Z,68.92
2019-01-18T10:25:21.498Z,66.14
2019-01-18T10:29:28.513Z,63.34
2019-01-18T10:33:35.671Z,63.14
2019-01-18T10:37:44.262Z,63.30
2019-01-18T10:41:51.271Z,63.27
2019-01-18T10:46:00.511Z,64.41
2019-01-18T10:50:11.316Z,67.83
2019-01-18T10:54:18.896Z,66.17
2019-01-18T10:58:25.941Z,67.40
2019-01-18T11:02:35.370Z,65.55
2019-01-18T11:06:42.257Z,66.07
2019-01-18T11:10:49.456Z,66.64
2019-01-18T11:14:56.471Z,66.78
2019-01-18T11:19:03.497Z,68.50
2019-01-18T11:23:10.933Z,67.72
2019-01-18T11:27:22.445Z,66.95
2019-01-18T11:31:29.530Z,68.76
2019-01-18T11:35:36.644Z,68.39
2019-01-18T11:39:43.679Z,68.19
2019-01-18T11:43:52.075Z,66.64
2019-01-18T11:47:59.157Z,65.82
2019-01-18T11:52:06.406Z,65.50
2019-01-18T11:56:13.469Z,64.87
2019-01-18T12:00:23.815Z,63.94
2019-01-18T12:04:30.977Z,63.85
2019-01-18T12:08:41.937Z,61.36
2019-01-18T12:12:49.042Z,58.99
2019-01-18T12:16:57.362Z,58.26
2019-01-18T12:21:04.437Z,56.25
2019-01-18T12:25:12.294Z,56.97
2019-01-18T12:29:19.371Z,55.29
2019-01-18T12:33:26.462Z,56.08
2019-01-18T12:37:33.423Z,56.06
2019-01-18T12:41:40.339Z,52.28
2019-01-18T12:45:47.300Z,51.19
2019-01-18T12:49:55.395Z,52.16
2019-01-18T12:54:05.921Z,52.15
2019-01-18T12:58:13.523Z,50.42
2019-01-18T13:02:20.637Z,49.29
2019-01-18T13:06:27.521Z,50.27
2019-01-18T13:10:35.235Z,51.64
2019-01-18T13:14:42.636Z,51.81
2019-01-18T13:18:56.905Z,52.86
2019-01-18T13:23:10.237Z,52.16
2019-01-18T13:27:17.274Z,54.57
2019-01-18T13:31:24.269Z,59.66
2019-01-18T13:35:31.481Z,56.85
2019-01-18T13:39:40.302Z,56.51
2019-01-18T13:43:47.919Z,56.19
2019-01-18T13:47:55.280Z,57.34
2019-01-18T13:52:03.193Z,58.35
2019-01-18T13:56:10.235Z,59.44
2019-01-18T14:00:17.312Z,59.59
2019-01-18T14:04:24.603Z,59.59
2019-01-18T14:08:31.863Z,59.89
2019-01-18T14:12:40.387Z,60.26
2019-01-18T14:16:47.584Z,60.47
2019-01-18T14:20:56.065Z,59.60
2019-01-18T14:25:03.602Z,59.68
2019-01-18T14:29:10.695Z,60.04
2019-01-18T14:33:18.004Z,60.54
2019-01-18T14:37:25.351Z,61.31
2019-01-18T14:41:32.833Z,61.44
2019-01-18T14:45:43.342Z,61.68
2019-01-18T14:49:54.010Z,61.58
2019-01-18T14:54:01.877Z,62.50
2019-01-18T14:58:13.547Z,61.73
2019-01-18T15:02:21.577Z,61.07
2019-01-18T15:06:28.995Z,61.20
2019-01-18T15:10:38.554Z,61.57
2019-01-18T15:14:45.667Z,62.77
2019-01-18T15:18:56.323Z,63.11
2019-01-18T15:23:03.579Z,62.15
2019-01-18T15:27:12.408Z,62.45
2019-01-18T15:31:19.772Z,63.49
2019-01-18T15:35:33.988Z,63.05
2019-01-18T15:39:43.581Z,63.63
2019-01-18T15:43:51.644Z,62.64
2019-01-18T15:48:02.373Z,62.84
2019-01-18T15:52:09.775Z,63.26
2019-01-18T15:56:20.551Z,63.47
2019-01-18T16:00:50.299Z,63.60
2019-01-18T16:04:58.193Z,63.72
2019-01-18T16:09:08.188Z,65.26
2019-01-18T16:13:16.056Z,64.47
2019-01-18T16:17:29.852Z,65.25
2019-01-18T16:21:40.958Z,65.42
2019-01-18T16:25:48.122Z,65.78
2019-01-18T16:29:57.419Z,66.27
2019-01-18T16:34:04.458Z,66.33
2019-01-18T16:38:12.803Z,67.37
2019-01-18T16:42:23.079Z,68.12
2019-01-18T16:46:47.060Z,68.65
2019-01-18T16:50:59.461Z,68.10
2019-01-18T16:55:18.212Z,68.33
2019-01-18T16:59:29.497Z,68.15
2019-01-18T17:03:42.966Z,68.08
2019-01-18T17:07:50.505Z,68.70
2019-01-18T17:11:57.648Z,68.92
2019-01-18T17:16:05.336Z,68.80
2019-01-18T17:20:23.698Z,68.83
2019-01-18T17:24:31.364Z,69.43
2019-01-18T17:28:47.262Z,69.05
2019-01-18T17:32:55.326Z,69.61
2019-01-18T17:37:15.032Z,69.24
2019-01-18T17:42:36.717Z,70.10
2019-01-18T17:47:37.922Z,70.36
2019-01-18T17:52:54.217Z,70.90
2019-01-18T17:58:10.030Z,72.14
2019-01-18T18:03:20.171Z,71.43
2019-01-18T18:08:20.157Z,71.99
2019-01-18T18:12:57.907Z,72.49
2019-01-18T18:17:51.268Z,72.60
2019-01-18T18:22:57.085Z,72.85
2019-01-18T18:28:02.786Z,71.81
2019-01-18T18:33:27.233Z,72.58
2019-01-18T18:38:28.203Z,71.70
2019-01-18T18:43:19.414Z,72.09
2019-01-18T18:48:30.114Z,72.57
2019-01-18T18:53:40.871Z,72.01
2019-01-18T18:58:44.194Z,72.12
2019-01-18T19:04:06.699Z,70.73
2019-01-18T19:09:13.527Z,71.47
2019-01-18T19:14:26.541Z,73.87
2019-01-18T19:19:21.913Z,75.62
2019-01-18T19:24:07.341Z,77.38
2019-01-18T19:34:54.987Z,78.05
2019-01-18T19:40:09.285Z,78.32
2019-01-18T19:45:14.024Z,78.50
2019-01-18T19:50:30.010Z,78.51
2019-01-18T19:55:09.932Z,76.27
2019-01-18T20:00:28.970Z,75.42
2019-01-18T20:05:49.028Z,75.32
2019-01-18T20:17:09.345Z,77.29
2019-01-18T20:22:44.826Z,77.62
2019-01-18T20:28:04.559Z,77.80
2019-01-18T20:33:27.325Z,78.35
2019-01-18T20:38:47.501Z,79.58
2019-01-18T20:43:55.689Z,80.26
2019-01-18T20:49:21.215Z,81.71
2019-01-18T20:54:38.692Z,82.29
2019-01-18T21:05:26.687Z,82.82
2019-01-18T21:10:15.233Z,83.29
2019-01-18T21:15:17.023Z,83.68
2019-01-18T21:20:17.891Z,83.69
2019-01-18T21:25:26.126Z,84.14
2019-01-18T21:30:43.669Z,84.17
2019-01-18T21:35:34.701Z,84.35
2019-01-18T21:40:42.647Z,84.06
2019-01-18T21:45:59.318Z,84.31
2019-01-18T21:51:18.613Z,83.77
2019-01-18T21:57:02.464Z,83.83
2019-01-18T22:01:51.295Z,84.31
2019-01-18T22:07:14.912Z,83.51
2019-01-18T22:13:13.739Z,83.70
2019-01-18T22:18:02.427Z,83.13
2019-01-18T22:23:10.209Z,83.14
2019-01-18T22:27:42.466Z,83.27
2019-01-18T22:32:40.446Z,83.68
2019-01-18T22:37:28.559Z,84.31
2019-01-18T22:42:21.669Z,83.45
2019-01-18T22:47:40.678Z,83.24
2019-01-18T22:52:06.830Z,82.38
2019-01-18T22:56:50.612Z,81.56
2019-01-18T23:02:21.607Z,80.99
2019-01-18T23:07:20.331Z,80.92
2019-01-18T23:11:46.391Z,81.04
2019-01-18T23:17:03.191Z,81.24
2019-01-18T23:22:00.669Z,81.64
2019-01-18T23:27:19.760Z,81.56
2019-01-18T23:32:13.457Z,80.96
2019-01-18T23:37:08.971Z,80.29
2019-01-18T23:42:34.080Z,80.40
2019-01-18T23:47:23.075Z,82.05
2019-01-18T23:52:16.158Z,82.06
2019-01-18T23:57:17.697Z,82.32
